createdAt,value
2022-08-18T00:02:06.510Z,100336.47
2022-08-18T00:07:09.723Z,100334.16
2022-08-18T00:12:13.867Z,100336.63
2022-08-18T00:17:13.070Z,100345.31
2022-08-18T00:22:16.208Z,100335.66
2022-08-18T00:27:15.137Z,100357.59
2022-08-18T00:32:15.672Z,100352.22
2022-08-18T00:37:16.705Z,100353.25
2022-08-18T00:42:27.628Z,100352.25
2022-08-18T00:47:41.675Z,100359.56
2022-08-18T00:52:43.585Z,100362.72
2022-08-18T00:57:44.091Z,100363.59
2022-08-18T01:02:46.422Z,100359.84
2022-08-18T01:07:50.173Z,100363.94
2022-08-18T01:12:51.973Z,100355.47
2022-08-18T01:18:08.377Z,100353.91
2022-08-18T01:23:14.410Z,100359.53
2022-08-18T01:28:14.823Z,100352.06
2022-08-18T01:33:13.914Z,100346.84
2022-08-18T01:38:14.220Z,100357.28
2022-08-18T01:43:13.206Z,100346.59
2022-08-18T01:48:12.783Z,100359.63
2022-08-18T01:53:13.502Z,100358.47
2022-08-18T01:58:13.994Z,100374.72
2022-08-18T02:03:16.040Z,100377.34
2022-08-18T02:08:16.789Z,100382.44
2022-08-18T02:13:15.788Z,100385.84
2022-08-18T02:18:32.474Z,100390.13
2022-08-18T02:23:40.728Z,100397.53
2022-08-18T02:28:50.096Z,100383.88
2022-08-18T02:33:52.226Z,100397.28
2022-08-18T02:38:58.507Z,100399.72
2022-08-18T02:44:00.142Z,100414.63
2022-08-18T02:49:00.205Z,100417.78
2022-08-18T02:54:00.990Z,100416.41
2022-08-18T02:59:04.503Z,100423.84
2022-08-18T03:04:04.174Z,100420.88
2022-08-18T03:09:05.344Z,100428.97
2022-08-18T03:14:05.777Z,100440.16
2022-08-18T03:19:08.486Z,100441.34
2022-08-18T03:24:10.682Z,100439.88
2022-08-18T03:29:12.536Z,100450.66
2022-08-18T03:34:11.811Z,100457.53
2022-08-18T03:39:14.293Z,100450.75
2022-08-18T03:44:14.587Z,100441.44
2022-08-18T03:49:13.807Z,100452.88
2022-08-18T03:54:16.603Z,100450.00
2022-08-18T03:59:18.379Z,100453.34
2022-08-18T04:04:19.616Z,100463.38
2022-08-18T04:09:20.828Z,100459.66
2022-08-18T04:14:24.320Z,100464.03
2022-08-18T04:19:27.212Z,100474.91
2022-08-18T04:24:31.927Z,100477.41
2022-08-18T04:29:31.115Z,100478.50
2022-08-18T04:34:30.203Z,100484.53
2022-08-18T04:39:38.960Z,100481.41
2022-08-18T04:44:46.269Z,100482.63
2022-08-18T04:49:46.699Z,100499.38
2022-08-18T04:54:48.006Z,100503.28
2022-08-18T04:59:50.532Z,100488.50
2022-08-18T05:04:50.952Z,100483.28
2022-08-18T05:09:55.360Z,100483.53
2022-08-18T05:14:57.436Z,100480.28
2022-08-18T05:19:57.827Z,100479.94
2022-08-18T05:24:59.085Z,100485.50
2022-08-18T05:29:58.406Z,100479.16
2022-08-18T05:34:57.469Z,100488.88
2022-08-18T05:40:05.263Z,100485.41
2022-08-18T05:45:10.501Z,100479.91
2022-08-18T05:50:12.466Z,100491.13
2022-08-18T05:55:36.208Z,100496.59
2022-08-18T06:00:37.572Z,100503.69
2022-08-18T06:05:38.747Z,100498.41
2022-08-18T06:10:43.837Z,100509.03
2022-08-18T06:15:50.112Z,100503.31
2022-08-18T06:21:21.089Z,100509.63
2022-08-18T06:26:32.289Z,100513.78
2022-08-18T06:31:42.455Z,100529.56
2022-08-18T06:36:51.490Z,100518.16
2022-08-18T06:41:53.986Z,100517.38
2022-08-18T06:47:00.393Z,100529.16
2022-08-18T06:51:59.901Z,100529.47
2022-08-18T06:57:01.992Z,100530.09
2022-08-18T07:02:12.208Z,100528.56
2022-08-18T07:07:18.979Z,100526.97
2022-08-18T07:12:32.563Z,100522.44
2022-08-18T07:17:43.302Z,100520.81
2022-08-18T07:22:59.925Z,100520.72
2022-08-18T07:28:03.058Z,100512.66
2022-08-18T07:33:12.860Z,100508.41
2022-08-18T07:43:52.417Z,100521.66
2022-08-18T07:48:52.786Z,100514.09
2022-08-18T07:53:59.524Z,100519.41
2022-08-18T07:59:11.049Z,100523.19
2022-08-18T08:04:25.933Z,100526.34
2022-08-18T08:09:40.508Z,100521.97
2022-08-18T08:14:46.148Z,100516.59
2022-08-18T08:20:00.824Z,100515.28
2022-08-18T08:25:17.663Z,100517.56
2022-08-18T08:30:34.243Z,100511.59
2022-08-18T08:35:49.597Z,100505.34
2022-08-18T08:40:55.873Z,100504.34
2022-08-18T08:46:08.499Z,100505.53
2022-08-18T08:51:30.400Z,100510.13
2022-08-18T08:56:34.771Z,100500.41
2022-08-18T09:01:43.952Z,100506.09
2022-08-18T09:06:55.210Z,100509.41
2022-08-18T09:12:38.249Z,100497.44
2022-08-18T09:17:57.221Z,100500.69
2022-08-18T09:23:06.358Z,100491.56
2022-08-18T09:28:13.284Z,100487.28
2022-08-18T09:33:34.638Z,100476.09
2022-08-18T09:38:56.075Z,100466.94
2022-08-18T09:44:11.962Z,100469.59
2022-08-18T09:50:37.346Z,100451.38
2022-08-18T09:55:29.945Z,100447.31
2022-08-18T10:00:33.436Z,100434.78
2022-08-18T10:05:36.795Z,100436.44
2022-08-18T10:11:01.051Z,100432.53
2022-08-18T10:16:17.161Z,100425.03
2022-08-18T10:21:22.845Z,100411.38
2022-08-18T10:27:14.851Z,100403.84
2022-08-18T10:32:36.694Z,100396.19
2022-08-18T10:37:40.957Z,100391.63
2022-08-18T10:42:46.936Z,100387.34
2022-08-18T10:47:59.054Z,100375.66
2022-08-18T10:58:42.272Z,100378.31
2022-08-18T11:04:13.761Z,100364.31
2022-08-18T11:09:23.368Z,100367.53
2022-08-18T11:14:50.084Z,100363.97
2022-08-18T11:19:51.008Z,100359.09
2022-08-18T11:24:57.030Z,100356.44
2022-08-18T11:30:00.577Z,100348.81
2022-08-18T11:35:06.166Z,100347.16
2022-08-18T11:41:02.420Z,100332.25
2022-08-18T11:45:56.989Z,100328.91
2022-08-18T11:51:03.545Z,100317.16
2022-08-18T11:56:18.990Z,100305.19
2022-08-18T12:01:51.193Z,100290.41
2022-08-18T12:07:04.515Z,100291.34
2022-08-18T12:12:08.654Z,100284.66
2022-08-18T12:17:13.171Z,100281.66
2022-08-18T12:22:17.690Z,100282.41
2022-08-18T12:27:22.081Z,100269.13
2022-08-18T12:32:49.597Z,100283.31
2022-08-18T12:38:13.416Z,100271.63
2022-08-18T12:43:11.661Z,100269.19
2022-08-18T12:48:10.982Z,100242.13
2022-08-18T12:53:12.289Z,100239.81
2022-08-18T12:58:13.217Z,100242.72
2022-08-18T13:03:12.259Z,100236.88
2022-08-18T13:08:30.780Z,100228.50
2022-08-18T13:14:32.497Z,100239.38
2022-08-18T13:19:33.475Z,100229.50
2022-08-18T13:24:34.438Z,100233.47
2022-08-18T13:29:34.111Z,100233.63
2022-08-18T13:34:38.233Z,100238.56
2022-08-18T13:39:54.482Z,100245.47
2022-08-18T13:45:22.721Z,100238.09
2022-08-18T13:50:29.741Z,100247.59
2022-08-18T13:55:30.308Z,100246.50
2022-08-18T14:00:31.232Z,100258.75
2022-08-18T14:05:36.575Z,100254.28
2022-08-18T14:10:52.675Z,100246.88
2022-08-18T14:15:54.967Z,100241.84
2022-08-18T14:21:14.507Z,100245.09
2022-08-18T14:26:31.812Z,100239.56
2022-08-18T14:31:30.805Z,100238.47
2022-08-18T14:36:34.777Z,100234.34
2022-08-18T14:41:35.739Z,100237.25
2022-08-18T14:46:40.941Z,100238.25
2022-08-18T14:51:43.318Z,100230.03
2022-08-18T14:56:42.333Z,100224.63
2022-08-18T15:01:43.589Z,100221.47
2022-08-18T15:06:56.442Z,100213.66
2022-08-18T15:11:59.958Z,100224.47
2022-08-18T15:17:00.057Z,100225.84
2022-08-18T15:22:18.129Z,100221.16
2022-08-18T15:27:19.465Z,100214.06
2022-08-18T15:32:19.357Z,100227.63
2022-08-18T15:37:24.209Z,100232.63
2022-08-18T15:42:23.879Z,100232.63
2022-08-18T15:47:25.126Z,100230.16
2022-08-18T15:52:26.642Z,100238.41
2022-08-18T15:57:39.042Z,100232.94
2022-08-18T16:02:39.999Z,100240.00
2022-08-18T16:07:45.045Z,100233.78
2022-08-18T16:12:46.193Z,100256.03
2022-08-18T16:17:47.622Z,100261.72
2022-08-18T16:22:53.144Z,100262.94
2022-08-18T16:27:55.061Z,100267.75
2022-08-18T16:32:55.166Z,100269.44
2022-08-18T16:37:58.169Z,100261.31
2022-08-18T16:42:58.211Z,100277.31
2022-08-18T16:47:57.913Z,100287.81
2022-08-18T16:52:59.382Z,100276.28
2022-08-18T16:58:16.347Z,100292.22
2022-08-18T17:03:34.243Z,100303.25
2022-08-18T17:08:36.264Z,100302.00
2022-08-18T17:13:37.902Z,100308.06
2022-08-18T17:18:39.486Z,100309.31
2022-08-18T17:23:42.568Z,100310.06
2022-08-18T17:28:52.568Z,100319.75
2022-08-18T17:33:55.038Z,100323.94
2022-08-18T17:39:00.394Z,100317.53
2022-08-18T17:44:03.039Z,100339.34
2022-08-18T17:49:13.924Z,100335.31
2022-08-18T17:54:24.091Z,100330.97
2022-08-18T17:59:45.495Z,100347.28
2022-08-18T18:04:49.301Z,100357.59
2022-08-18T18:09:56.611Z,100362.75
2022-08-18T18:14:56.681Z,100366.28
2022-08-18T18:20:00.150Z,100369.69
2022-08-18T18:25:07.573Z,100378.19
2022-08-18T18:30:13.923Z,100396.72
2022-08-18T18:35:17.725Z,100392.47
2022-08-18T18:40:25.886Z,100385.38
2022-08-18T18:45:28.818Z,100391.41
2022-08-18T18:50:34.218Z,100411.75
2022-08-18T18:55:47.179Z,100405.84
2022-08-18T19:00:55.743Z,100409.56
2022-08-18T19:06:14.115Z,100418.16
2022-08-18T19:11:22.091Z,100420.72
2022-08-18T19:16:29.345Z,100428.44
2022-08-18T19:22:01.761Z,100419.84
2022-08-18T19:26:53.774Z,100408.56
2022-08-18T19:32:02.768Z,100415.34
2022-08-18T19:37:08.246Z,100406.66
2022-08-18T19:42:17.803Z,100414.66
2022-08-18T19:47:23.246Z,100416.03
2022-08-18T19:52:47.229Z,100411.75
2022-08-18T19:58:03.217Z,100407.25
2022-08-18T20:03:33.782Z,100414.84
2022-08-18T20:09:03.930Z,100424.34
2022-08-18T20:14:05.409Z,100472.16
2022-08-18T20:19:26.238Z,100489.28
2022-08-18T20:24:41.830Z,100468.50
2022-08-18T20:29:47.809Z,100450.13
2022-08-18T20:34:51.079Z,100451.97
2022-08-18T20:39:54.757Z,100444.28
2022-08-18T20:44:59.300Z,100454.00
2022-08-18T20:50:14.152Z,100463.16
2022-08-18T20:55:21.609Z,100452.06
2022-08-18T21:00:27.426Z,100459.28
2022-08-18T21:05:29.346Z,100454.00
2022-08-18T21:10:30.004Z,100460.38
2022-08-18T21:15:35.650Z,100461.13
2022-08-18T21:20:35.668Z,100466.09
2022-08-18T21:25:34.532Z,100468.56
2022-08-18T21:30:35.038Z,100465.00
2022-08-18T21:35:38.189Z,100463.50
2022-08-18T21:40:40.020Z,100464.06
2022-08-18T21:45:47.927Z,100462.13
2022-08-18T21:50:52.589Z,100463.38
2022-08-18T21:55:52.539Z,100478.03
2022-08-18T22:01:13.911Z,100474.69
2022-08-18T22:06:21.458Z,100469.69
2022-08-18T22:11:59.856Z,100470.16
2022-08-18T22:17:28.840Z,100469.78
2022-08-18T22:22:49.518Z,100469.81
2022-08-18T22:27:51.169Z,100465.84
2022-08-18T22:32:51.634Z,100453.63
2022-08-18T22:37:50.983Z,100453.63
2022-08-18T22:42:50.198Z,100446.09
2022-08-18T22:47:49.531Z,100446.88
2022-08-18T22:52:50.858Z,100446.94
2022-08-18T22:57:49.958Z,100450.75
2022-08-18T23:02:49.110Z,100453.50
2022-08-18T23:07:49.952Z,100455.22
2022-08-18T23:12:49.978Z,100455.66
2022-08-18T23:17:49.026Z,100460.88
2022-08-18T23:22:49.870Z,100461.53
2022-08-18T23:27:48.903Z,100464.25
2022-08-18T23:32:48.110Z,100475.69
2022-08-18T23:37:47.661Z,100470.28
2022-08-18T23:42:51.631Z,100473.38
2022-08-18T23:47:51.089Z,100470.66
2022-08-18T23:52:56.559Z,100464.25
2022-08-18T23:57:57.101Z,100463.00
